Time;durP1;ratioP1;P1;durP2;ratioP2;P2;SDS_P1;SDS_P2;PMS_P1;PMS_P2;Temp;Humidity;BMP_temperature;BMP_pressure;BME280_temperature;BME280_humidity;BME280_pressure;Samples;Min_cycle;Max_cycle;Signal;HPM_P1;HPM_P2
2021/12/27 00:02:04;;;;;;;2.73;2.53;;;16.20;83.10;;;16.27;39.88;99878.44;4943824;28;98070;-45
2021/12/27 00:04:30;;;;;;;2.70;2.50;;;16.30;83.10;;;16.28;39.97;99880.13;4940633;28;98548;-47
2021/12/27 00:06:56;;;;;;;2.70;2.50;;;16.30;83.20;;;16.24;39.95;99882.16;4958616;27;98577;-46
2021/12/27 00:09:22;;;;;;;2.53;2.33;;;16.30;82.90;;;16.27;39.92;99873.97;4938579;28;98582;-48
2021/12/27 00:11:47;;;;;;;2.43;2.23;;;16.30;83.30;;;16.28;39.97;99880.13;4943830;28;97841;-44
2021/12/27 00:14:13;;;;;;;2.67;2.23;;;16.30;83.10;;;16.29;39.96;99864.06;4956785;28;100424;-44
2021/12/27 00:16:39;;;;;;;3.23;2.93;;;16.40;83.10;;;16.28;39.92;99864.16;4940021;28;102949;-46
2021/12/27 00:19:05;;;;;;;2.63;2.43;;;16.30;82.50;;;16.30;39.80;99860.44;4944025;28;98122;-50
2021/12/27 00:21:31;;;;;;;2.83;2.60;;;16.40;83.00;;;16.32;39.90;99855.84;4940041;28;98385;-45
2021/12/27 00:23:57;;;;;;;2.47;2.23;;;16.40;82.70;;;16.33;39.75;99854.88;4945229;28;104088;-48
2021/12/27 00:26:22;;;;;;;2.33;2.13;;;16.50;82.80;;;16.34;39.64;99859.25;4938490;28;98555;-45
2021/12/27 00:28:50;;;;;;;2.57;2.30;;;16.50;82.70;;;16.38;39.82;99864.38;4943308;27;98160;-48
2021/12/27 00:31:16;;;;;;;2.50;2.30;;;16.50;82.30;;;16.38;39.81;99851.91;4938661;28;97441;-44
2021/12/27 00:33:42;;;;;;;2.60;2.33;;;16.50;82.50;;;16.27;40.11;99858.00;4946670;28;98177;-45
2021/12/27 00:36:07;;;;;;;2.50;2.30;;;16.30;82.90;;;16.29;39.88;99847.25;4943933;28;99307;-47
2021/12/27 00:38:34;;;;;;;2.17;1.97;;;16.40;82.70;;;16.30;40.02;99847.13;4941562;28;98303;-44
2021/12/27 00:40:59;;;;;;;3.93;3.60;;;16.30;83.30;;;16.27;40.07;99852.69;4940788;28;97085;-48
2021/12/27 00:43:25;;;;;;;2.33;2.13;;;16.30;82.40;;;16.26;40.29;99840.34;4931074;28;101317;-46
2021/12/27 00:45:51;;;;;;;2.53;2.33;;;16.30;83.60;;;16.26;40.09;99850.97;4955727;27;98647;-46
2021/12/27 00:48:17;;;;;;;2.40;2.20;;;16.30;83.50;;;16.22;40.29;99846.84;4952240;27;108086;-45
2021/12/27 00:50:45;;;;;;;2.43;2.23;;;16.20;83.40;;;16.22;40.15;99844.19;4955869;27;100568;-46
2021/12/27 00:53:10;;;;;;;2.30;2.10;;;16.30;82.90;;;16.19;40.15;99844.38;4955501;28;100685;-48
2021/12/27 00:55:36;;;;;;;2.27;2.07;;;16.20;83.60;;;16.17;40.38;99845.47;4937478;28;98420;-44
2021/12/27 00:58:03;;;;;;;2.20;2.00;;;16.20;83.80;;;16.15;40.11;99842.91;4952721;28;98591;-47
2021/12/27 01:00:29;;;;;;;2.17;1.97;;;16.10;83.90;;;16.18;40.31;99842.69;4941389;28;102590;-45
2021/12/27 01:02:55;;;;;;;3.17;2.93;;;16.20;83.80;;;16.19;40.28;99844.38;4926575;28;99532;-45
2021/12/27 01:05:24;;;;;;;2.13;1.93;;;16.20;82.20;;;16.14;40.38;99843.88;4942444;28;99523;-44
2021/12/27 01:07:50;;;;;;;2.50;2.30;;;16.10;84.30;;;16.15;40.55;99847.38;4942819;28;99165;-46
2021/12/27 01:13:06;;;;;;;2.30;2.10;;;16.10;84.20;;;16.11;40.69;99845.91;4942611;28;98398;-46
2021/12/27 01:15:46;;;;;;;2.30;2.10;;;16.10;84.60;;;16.08;40.49;99835.50;4939233;28;97905;-45
2021/12/27 01:18:12;;;;;;;1.87;1.77;;;16.00;84.40;;;16.10;40.68;99842.41;4942768;28;98152;-46
2021/12/27 01:20:38;;;;;;;1.77;1.67;;;16.10;85.30;;;16.12;40.51;99836.97;4937821;28;99264;-46
2021/12/27 01:23:04;;;;;;;2.00;1.83;;;16.10;84.40;;;16.08;40.81;99839.00;4956704;27;99621;-46
2021/12/27 01:25:30;;;;;;;2.70;2.50;;;16.10;84.30;;;16.15;40.25;99842.91;4931247;28;102764;-48
2021/12/27 01:27:56;;;;;;;2.40;2.20;;;16.20;83.40;;;16.14;40.67;99841.22;4955160;28;97293;-47
2021/12/27 01:30:23;;;;;;;2.13;1.93;;;16.20;84.10;;;16.16;40.50;99839.28;4934659;28;98551;-46
2021/12/27 01:32:54;;;;;;;2.40;2.20;;;16.20;84.40;;;16.18;40.67;99834.69;4941950;28;99748;-49
2021/12/27 01:35:22;;;;;;;2.07;1.97;;;16.20;83.70;;;16.23;40.29;99837.06;4935387;28;98885;-45
2021/12/27 01:37:50;;;;;;;2.20;2.00;;;16.30;84.10;;;16.23;40.59;99835.25;4937675;28;97818;-45
2021/12/27 01:40:22;;;;;;;1.83;1.73;;;16.30;83.60;;;16.29;40.26;99828.63;4935894;28;97740;-49
2021/12/27 01:43:12;;;;;;;1.83;1.73;;;16.40;83.80;;;16.35;40.12;99829.03;4936371;28;99579;-44
2021/12/27 01:45:50;;;;;;;2.20;2.00;;;16.50;83.50;;;16.41;40.13;99824.22;4931453;28;100326;-46
2021/12/27 01:48:21;;;;;;;2.13;1.93;;;16.50;83.20;;;16.40;40.21;99819.84;4935819;28;101061;-51
2021/12/27 01:50:49;;;;;;;1.87;1.77;;;16.50;83.00;;;16.38;40.27;99824.44;4943282;28;98900;-47
2021/12/27 01:53:17;;;;;;;1.90;1.70;;;16.50;83.40;;;16.36;40.21;99820.09;4939610;28;98993;-52
2021/12/27 01:55:44;;;;;;;2.33;2.00;;;16.50;83.50;;;16.37;40.02;99818.28;4944758;28;101144;-46
2021/12/27 01:58:10;;;;;;;2.53;2.30;;;16.50;83.50;;;16.38;40.19;99816.47;4943539;28;97239;-48
2021/12/27 02:00:40;;;;;;;2.60;2.33;;;16.40;83.20;;;16.32;40.15;99821.25;4944827;28;102098;-49
2021/12/27 02:03:06;;;;;;;2.20;2.00;;;16.40;82.70;;;16.33;40.11;99820.28;4947198;28;98862;-49
2021/12/27 02:05:33;;;;;;;2.17;1.97;;;16.40;83.10;;;16.32;40.07;99823.91;4946238;28;97462;-48
2021/12/27 02:07:59;;;;;;;2.07;1.87;;;16.30;83.60;;;16.23;40.31;99827.25;4961964;28;97117;-45
2021/12/27 02:10:25;;;;;;;2.27;2.07;;;16.20;84.20;;;16.14;40.50;99825.25;4941617;28;98051;-44
2021/12/27 02:12:51;;;;;;;3.90;3.50;;;16.00;84.90;;;16.01;41.00;99825.28;4953930;28;97464;-46
2021/12/27 02:15:17;;;;;;;1.73;1.60;;;15.80;85.50;;;15.93;41.09;99821.47;4971396;28;97217;-46
2021/12/27 02:17:44;;;;;;;1.63;1.53;;;15.70;86.30;;;15.94;41.11;99817.84;4961846;28;99863;-44
2021/12/27 02:20:20;;;;;;;1.97;1.77;;;15.80;85.70;;;15.93;41.00;99824.13;4959425;28;96791;-44
2021/12/27 02:22:47;;;;;;;2.00;1.80;;;15.70;85.80;;;15.87;41.29;99827.22;4957289;28;103008;-48
2021/12/27 02:25:13;;;;;;;4.77;4.33;;;15.70;86.40;;;15.79;41.15;99824.25;4958540;28;100305;-48
2021/12/27 02:27:43;;;;;;;2.37;2.17;;;15.60;85.50;;;15.71;41.20;99822.13;4954469;28;97028;-46
2021/12/27 02:30:13;;;;;;;2.43;2.23;;;15.50;86.00;;;15.68;41.61;99820.53;4975973;28;97527;-48
2021/12/27 02:32:55;;;;;;;2.33;1.70;;;15.40;86.40;;;15.75;41.50;99821.78;4957281;28;97580;-46
2021/12/27 02:35:41;;;;;;;3.30;3.00;;;15.60;86.70;;;15.80;41.61;99817.97;4960710;28;99693;-47
2021/12/27 02:38:11;;;;;;;3.27;2.90;;;15.70;86.00;;;15.80;41.34;99816.16;4976153;28;96825;-46
2021/12/27 02:40:41;;;;;;;2.43;2.23;;;15.80;84.80;;;15.75;41.30;99819.13;4959819;28;97064;-46
2021/12/27 02:43:14;;;;;;;2.00;1.80;;;15.70;85.60;;;15.80;41.59;99808.19;4974128;28;97871;-47
2021/12/27 02:45:49;;;;;;;1.77;1.67;;;15.70;86.00;;;15.87;41.45;99800.63;4957993;28;101538;-46
2021/12/27 02:48:21;;;;;;;2.03;1.67;;;15.80;85.90;;;15.88;41.18;99803.16;4961181;28;97015;-50
2021/12/27 02:50:48;;;;;;;1.97;1.80;;;15.80;85.80;;;15.97;41.22;99801.66;4973663;28;97980;-52
2021/12/27 02:53:16;;;;;;;1.87;1.67;;;16.00;85.60;;;16.03;41.22;99806.53;4960232;28;96811;-44
2021/12/27 02:55:42;;;;;;;1.80;1.70;;;16.00;85.20;;;16.06;40.95;99801.03;4971880;28;103781;-49
2021/12/27 02:58:09;;;;;;;2.00;1.73;;;16.10;84.90;;;16.02;41.02;99804.84;4962519;28;99600;-45
2021/12/27 03:00:43;;;;;;;2.03;1.77;;;16.00;85.60;;;16.04;41.00;99802.91;4972017;28;97402;-44
2021/12/27 03:03:09;;;;;;;2.07;1.80;;;16.00;85.40;;;16.06;41.23;99795.69;4962723;28;97688;-44
2021/12/27 03:05:35;;;;;;;1.70;1.50;;;16.00;85.40;;;16.11;40.83;99793.56;4953989;28;99650;-47
2021/12/27 03:08:01;;;;;;;2.13;1.93;;;16.10;84.80;;;16.13;41.08;99788.97;4960151;28;97057;-46
2021/12/27 03:10:33;;;;;;;2.17;1.83;;;16.20;85.10;;;16.14;40.84;99788.00;4955071;28;97274;-45
2021/12/27 03:13:02;;;;;;;1.67;1.50;;;16.20;84.40;;;16.12;40.90;99789.94;4962026;28;98137;-49
2021/12/27 03:15:28;;;;;;;1.60;1.50;;;16.10;85.10;;;16.16;40.77;99785.22;4957465;28;97962;-46
2021/12/27 03:17:55;;;;;;;1.50;1.40;;;16.20;85.10;;;16.20;40.96;99776.94;4976391;28;98217;-47
2021/12/27 03:20:25;;;;;;;1.90;1.80;;;16.20;84.80;;;16.26;40.58;99776.47;4957849;28;96985;-48
2021/12/27 03:22:51;;;;;;;1.90;1.67;;;16.40;84.40;;;16.26;40.53;99770.31;4975808;28;100251;-47
2021/12/27 03:25:21;;;;;;;1.73;1.63;;;16.30;84.60;;;16.33;40.61;99769.72;4975013;28;98491;-48
2021/12/27 03:27:48;;;;;;;2.33;2.10;;;16.40;84.40;;;16.35;40.37;99765.16;4978013;28;97341;-44
2021/12/27 03:30:24;;;;;;;2.07;1.87;;;16.40;84.30;;;16.32;40.71;99757.38;4957382;28;97810;-45
2021/12/27 03:32:51;;;;;;;1.93;1.83;;;16.40;84.20;;;16.29;40.49;99754.09;4959069;28;102443;-47
2021/12/27 03:35:25;;;;;;;2.77;2.50;;;16.30;84.00;;;16.15;41.00;99763.09;4961037;28;98510;-47
2021/12/27 03:37:55;;;;;;;1.97;1.63;;;16.10;85.10;;;16.01;41.45;99765.91;4963163;28;99041;-46
2021/12/27 03:40:23;;;;;;;1.80;1.70;;;15.80;86.60;;;15.96;41.24;99768.06;4974633;28;98184;-46
2021/12/27 03:42:50;;;;;;;1.83;1.50;;;15.70;86.60;;;15.95;41.37;99779.66;4964353;28;100312;-46
2021/12/27 03:45:28;;;;;;;2.27;1.90;;;15.80;86.00;;;15.96;41.24;99773.38;4977215;28;98509;-49
2021/12/27 03:47:54;;;;;;;2.57;2.37;;;15.90;86.40;;;15.91;41.39;99770.19;4964383;28;97843;-49
2021/12/27 03:50:20;;;;;;;2.30;2.10;;;15.80;85.90;;;15.93;41.41;99762.97;4962736;28;97270;-50
2021/12/27 03:52:47;;;;;;;1.60;1.50;;;15.90;86.10;;;15.92;41.74;99767.44;4963776;28;97720;-46
2021/12/27 03:55:14;;;;;;;1.80;1.70;;;15.80;86.40;;;15.96;41.44;99762.75;4977098;28;98364;-48
2021/12/27 03:57:42;;;;;;;1.90;1.63;;;15.90;86.00;;;15.95;41.47;99761.03;4959309;28;98417;-47
2021/12/27 04:00:27;;;;;;;1.70;1.60;;;15.90;86.30;;;16.03;41.19;99748.88;4964038;28;97787;-45
2021/12/27 04:02:57;;;;;;;1.70;1.60;;;16.10;85.90;;;16.12;41.09;99757.16;4963112;28;101983;-46
2021/12/27 04:05:24;;;;;;;2.53;2.27;;;16.10;85.50;;;16.02;41.35;99767.59;4973061;28;99232;-47
2021/12/27 04:07:59;;;;;;;1.63;1.53;;;16.00;85.70;;;15.91;41.71;99765.75;4978251;28;98316;-46
2021/12/27 04:10:29;;;;;;;1.90;1.80;;;15.70;87.20;;;15.82;41.89;99766.38;4960737;28;97397;-45
2021/12/27 04:12:56;;;;;;;3.07;2.77;;;15.60;87.50;;;15.76;41.83;99766.81;4965836;28;98621;-46
2021/12/27 04:15:22;;;;;;;1.63;1.53;;;15.50;87.70;;;15.73;42.12;99756.41;4958847;28;98461;-48
2021/12/27 04:17:48;;;;;;;1.50;1.40;;;15.50;87.90;;;15.76;42.16;99750.84;4965032;28;96910;-45
2021/12/27 04:20:14;;;;;;;2.03;1.40;;;15.60;87.40;;;15.84;42.00;99737.03;4966581;28;98119;-45
2021/12/27 04:22:40;;;;;;;1.80;1.70;;;15.80;86.90;;;15.94;41.49;99738.06;4961423;28;102249;-45
2021/12/27 04:25:07;;;;;;;1.83;1.70;;;15.90;86.40;;;16.01;41.32;99723.34;4963200;28;98291;-44
2021/12/27 04:27:33;;;;;;;1.53;1.37;;;16.10;85.80;;;16.10;41.45;99727.16;4958110;28;98484;-49
2021/12/27 04:29:58;;;;;;;1.50;1.40;;;16.20;85.50;;;16.15;41.08;99727.66;4963417;28;100756;-46
2021/12/27 04:32:24;;;;;;;1.57;1.47;;;16.20;85.20;;;16.18;41.16;99720.31;4957918;28;97775;-47
2021/12/27 04:34:50;;;;;;;1.67;1.37;;;16.30;85.10;;;16.25;41.09;99721.56;4965059;28;97648;-44
2021/12/27 04:37:16;;;;;;;1.73;1.63;;;16.40;85.10;;;16.29;40.98;99717.69;4974681;28;98024;-51
2021/12/27 04:39:42;;;;;;;2.10;1.90;;;16.40;85.00;;;16.31;40.71;99713.13;4964236;28;97869;-45
2021/12/27 04:42:08;;;;;;;1.70;1.60;;;16.40;84.70;;;16.32;40.74;99717.47;4965781;28;99440;-44
2021/12/27 04:44:34;;;;;;;1.70;1.60;;;16.40;84.70;;;16.33;41.03;99711.19;4978087;28;99799;-45
2021/12/27 04:47:00;;;;;;;1.50;1.40;;;16.40;85.10;;;16.32;40.93;99708.63;4964000;28;97672;-47
2021/12/27 04:49:26;;;;;;;1.70;1.60;;;16.40;84.90;;;16.24;41.16;99719.88;4959366;28;98404;-44
2021/12/27 04:51:52;;;;;;;1.43;1.27;;;16.20;85.10;;;16.20;41.28;99714.88;4979384;28;98418;-46
2021/12/27 04:54:18;;;;;;;1.67;1.57;;;16.20;85.50;;;16.15;41.26;99709.88;4958512;28;97433;-45
2021/12/27 04:56:44;;;;;;;1.60;1.50;;;16.10;85.60;;;16.16;41.28;99710.75;4964139;28;100958;-45
2021/12/27 04:59:09;;;;;;;1.60;1.50;;;16.10;85.90;;;16.18;41.27;99712.31;4976185;28;97955;-48
2021/12/27 05:01:35;;;;;;;2.00;1.80;;;16.20;85.60;;;16.20;41.37;99713.09;4974820;28;103583;-44
2021/12/27 05:04:01;;;;;;;1.50;1.40;;;16.20;85.70;;;16.22;41.24;99703.16;4974904;28;111925;-45
2021/12/27 05:06:27;;;;;;;1.50;1.40;;;16.20;85.20;;;16.18;41.38;99708.81;4964756;28;97857;-46
2021/12/27 05:08:53;;;;;;;1.57;1.47;;;16.20;85.80;;;16.12;41.36;99699.47;4963900;28;97353;-47
2021/12/27 05:11:20;;;;;;;1.87;1.77;;;16.00;86.40;;;16.07;41.58;99701.63;4960547;28;100250;-47
2021/12/27 05:13:46;;;;;;;1.40;1.30;;;15.90;86.50;;;15.99;41.88;99698.69;4978656;28;98377;-44
2021/12/27 05:16:12;;;;;;;1.37;1.27;;;15.80;87.50;;;15.95;41.82;99694.56;4963571;28;97476;-44
2021/12/27 05:18:38;;;;;;;1.60;1.50;;;15.80;87.10;;;15.89;42.10;99708.28;4963418;28;98746;-44
2021/12/27 05:21:04;;;;;;;1.60;1.50;;;15.70;87.50;;;15.88;42.16;99695.94;4961898;28;97854;-48
2021/12/27 05:23:31;;;;;;;1.77;1.60;;;15.70;87.80;;;15.91;41.80;99690.41;4960633;28;97088;-44
2021/12/27 05:25:57;;;;;;;1.27;1.17;;;15.70;87.40;;;15.89;41.80;99693.16;4959464;28;97642;-43
2021/12/27 05:28:23;;;;;;;2.03;1.83;;;15.80;87.40;;;15.87;41.80;99694.25;4961020;28;100872;-44
2021/12/27 05:30:51;;;;;;;1.80;1.70;;;15.70;86.80;;;15.83;41.89;99688.31;4979330;28;99167;-45
2021/12/27 05:33:19;;;;;;;1.93;1.80;;;15.70;87.60;;;15.81;42.01;99689.38;4960184;28;98306;-50
2021/12/27 05:35:46;;;;;;;1.60;1.50;;;15.60;87.30;;;15.73;42.18;99685.47;4978779;28;98146;-46
2021/12/27 05:38:13;;;;;;;1.67;1.57;;;15.50;88.20;;;15.75;42.45;99688.00;4976986;28;98280;-42
2021/12/27 05:40:39;;;;;;;1.80;1.60;;;15.60;88.30;;;15.76;42.30;99687.03;4959500;28;97769;-44
2021/12/27 05:43:06;;;;;;;2.00;1.80;;;15.60;88.00;;;15.74;42.29;99684.50;4962838;28;97666;-45
2021/12/27 05:45:34;;;;;;;1.47;1.37;;;15.60;88.30;;;15.74;42.38;99683.66;4960551;28;98141;-45
2021/12/27 05:48:00;;;;;;;1.50;1.40;;;15.60;88.30;;;15.74;42.10;99679.19;4961176;28;98542;-42
2021/12/27 05:50:26;;;;;;;1.80;1.50;;;15.60;88.10;;;15.73;42.21;99674.81;4956629;28;97766;-42
2021/12/27 05:52:53;;;;;;;1.47;1.37;;;15.60;87.70;;;15.72;42.58;99681.09;4978124;28;98108;-43
2021/12/27 05:55:19;;;;;;;1.80;1.70;;;15.60;88.30;;;15.65;42.72;99685.19;4956086;28;97774;-45
2021/12/27 05:57:45;;;;;;;1.40;1.30;;;15.40;89.30;;;15.52;42.71;99684.31;4964768;28;97925;-48
2021/12/27 06:00:13;;;;;;;1.83;1.63;;;15.20;90.40;;;15.50;42.95;99683.59;4964088;28;96930;-47
2021/12/27 06:02:40;;;;;;;1.53;1.43;;;15.20;90.00;;;15.53;42.85;99664.75;4959076;28;98252;-44
2021/12/27 06:05:07;;;;;;;1.67;1.50;;;15.20;89.70;;;15.60;42.84;99671.34;4959698;28;97937;-48
2021/12/27 06:07:33;;;;;;;2.53;2.20;;;15.40;89.10;;;15.65;42.64;99669.22;4974946;28;97913;-48
2021/12/27 06:09:59;;;;;;;1.87;1.70;;;15.60;88.10;;;15.73;42.27;99671.31;4961242;28;100126;-49
2021/12/27 06:12:25;;;;;;;1.80;1.60;;;15.60;88.20;;;15.76;42.40;99661.31;4950774;28;102956;-44
2021/12/27 06:14:51;;;;;;;3.27;2.27;;;15.80;87.70;;;15.72;42.19;99670.47;4977236;28;100672;-42
2021/12/27 06:17:17;;;;;;;2.10;1.63;;;15.60;87.90;;;15.71;42.68;99670.59;4972835;28;97168;-50
2021/12/27 06:19:43;;;;;;;2.13;1.53;;;15.60;88.40;;;15.69;42.32;99665.38;4965760;28;97885;-50
2021/12/27 06:22:10;;;;;;;1.80;1.70;;;15.60;88.00;;;15.70;42.65;99664.41;4975363;28;97639;-45
2021/12/27 06:24:35;;;;;;;1.47;1.37;;;15.60;88.70;;;15.71;42.47;99663.47;4960682;28;98934;-45
2021/12/27 06:27:01;;;;;;;1.40;1.30;;;15.60;88.60;;;15.74;42.55;99668.53;4963448;28;97534;-44
2021/12/27 06:29:27;;;;;;;1.57;1.43;;;15.60;87.90;;;15.74;42.61;99673.88;4972027;28;99615;-43
2021/12/27 06:31:53;;;;;;;2.10;1.90;;;15.60;87.90;;;15.66;42.83;99672.72;4975737;28;102413;-47
2021/12/27 06:34:19;;;;;;;2.47;2.27;;;15.50;89.30;;;15.63;42.55;99668.50;4958224;28;98199;-44
2021/12/27 06:36:45;;;;;;;2.13;1.93;;;15.40;88.60;;;15.53;42.84;99680.72;4958528;28;98657;-45
2021/12/27 06:39:11;;;;;;;1.43;1.30;;;15.20;90.40;;;15.46;43.32;99677.63;4971624;28;100977;-45
2021/12/27 06:41:37;;;;;;;1.63;1.40;;;15.10;90.40;;;15.49;43.19;99684.53;4952512;28;99620;-44
2021/12/27 06:44:04;;;;;;;2.00;1.37;;;15.20;90.10;;;15.45;43.33;99685.69;4957384;28;98090;-44
2021/12/27 06:46:30;;;;;;;1.73;1.30;;;15.10;90.40;;;15.48;43.23;99681.03;4954557;28;97869;-45
2021/12/27 06:48:56;;;;;;;3.93;3.60;;;15.20;90.10;;;15.48;42.98;99685.50;4956331;28;99359;-47
2021/12/27 06:51:22;;;;;;;2.30;1.63;;;15.20;90.00;;;15.55;43.25;99681.44;4956573;28;99874;-44
2021/12/27 06:53:48;;;;;;;1.73;1.40;;;15.30;90.00;;;15.60;42.84;99679.31;4962652;28;99470;-48
2021/12/27 06:56:14;;;;;;;3.47;3.17;;;15.40;89.70;;;15.65;42.95;99673.69;4961363;28;96907;-46
2021/12/27 06:58:40;;;;;;;2.70;1.60;;;15.50;89.00;;;15.63;42.88;99675.63;4973340;28;105986;-47
2021/12/27 07:01:06;;;;;;;2.53;2.33;;;15.50;89.90;;;15.67;42.93;99671.78;4964630;28;102711;-44
2021/12/27 07:03:32;;;;;;;5.50;4.90;;;15.50;88.80;;;15.56;43.29;99675.16;4977555;28;98066;-43
2021/12/27 07:05:59;;;;;;;3.37;3.00;;;15.30;90.30;;;15.48;43.03;99686.34;4964691;28;99026;-43
2021/12/27 07:08:25;;;;;;;1.57;1.30;;;15.20;90.30;;;15.49;43.43;99684.53;4963822;28;98806;-43
2021/12/27 07:10:51;;;;;;;3.37;2.40;;;15.20;90.30;;;15.42;43.32;99693.91;4977856;28;98576;-43
2021/12/27 07:13:16;;;;;;;1.67;1.57;;;15.10;90.80;;;15.42;43.39;99688.59;4963088;28;97537;-50
2021/12/27 07:15:42;;;;;;;1.67;1.57;;;15.10;90.40;;;15.48;43.47;99693.47;4978764;28;97526;-43
2021/12/27 07:18:12;;;;;;;1.63;1.53;;;15.20;90.30;;;15.58;42.96;99675.06;4980041;28;98589;-47
2021/12/27 07:20:40;;;;;;;1.77;1.50;;;15.40;89.90;;;15.70;42.81;99669.75;4962285;28;98581;-43
2021/12/27 07:23:07;;;;;;;2.13;1.73;;;15.60;89.10;;;15.81;42.50;99676.09;4966277;28;98532;-43
2021/12/27 07:25:34;;;;;;;1.33;1.23;;;15.80;88.00;;;15.87;42.37;99678.28;4959252;28;97907;-44
2021/12/27 07:28:00;;;;;;;3.13;2.60;;;15.90;88.30;;;15.93;42.42;99672.53;4969823;28;98225;-45
2021/12/27 07:30:29;;;;;;;1.97;1.80;;;15.90;87.00;;;15.84;42.60;99678.53;4966618;28;98839;-42
2021/12/27 07:32:55;;;;;;;2.00;1.50;;;15.80;88.10;;;15.90;42.49;99673.59;4968943;28;97031;-43
2021/12/27 07:35:22;;;;;;;1.77;1.60;;;15.80;88.10;;;15.91;42.47;99679.75;4975184;28;97691;-44
2021/12/27 07:37:48;;;;;;;1.80;1.67;;;15.90;88.00;;;15.92;42.47;99670.84;4962988;28;99222;-46
2021/12/27 07:40:14;;;;;;;1.77;1.60;;;15.90;87.80;;;15.91;42.25;99679.75;4978963;27;98079;-43
2021/12/27 07:42:40;;;;;;;1.50;1.40;;;15.80;88.60;;;15.95;42.13;99670.63;4962286;28;97760;-43
2021/12/27 07:45:07;;;;;;;1.60;1.50;;;16.00;88.10;;;16.01;42.19;99667.50;4963846;28;97490;-43
2021/12/27 07:47:33;;;;;;;2.37;1.87;;;16.00;87.30;;;15.99;42.03;99672.94;4963275;28;98803;-45
2021/12/27 07:49:59;;;;;;;2.33;2.00;;;16.00;87.80;;;15.97;42.38;99674.00;4964084;28;98368;-46
2021/12/27 07:52:25;;;;;;;2.20;1.63;;;15.90;87.60;;;15.98;42.44;99665.06;4962656;28;98553;-45
2021/12/27 07:54:51;;;;;;;1.90;1.80;;;16.00;88.20;;;16.03;42.17;99673.53;4960713;28;103097;-42
2021/12/27 07:57:18;;;;;;;1.70;1.57;;;16.00;87.50;;;16.07;42.18;99659.09;4961609;28;98559;-49
2021/12/27 07:59:47;;;;;;;1.93;1.73;;;16.10;87.30;;;16.13;41.81;99658.63;4962325;28;98629;-44
2021/12/27 08:02:16;;;;;;;1.50;1.40;;;16.20;87.00;;;16.20;41.90;99651.91;4966029;28;97426;-42
2021/12/27 08:04:43;;;;;;;2.00;1.80;;;16.30;86.70;;;16.26;41.70;99654.06;4967291;28;98082;-43
2021/12/27 08:07:09;;;;;;;1.60;1.50;;;16.40;86.50;;;16.31;41.77;99641.25;4973963;28;98299;-45
2021/12/27 08:09:35;;;;;;;2.53;1.80;;;16.40;86.30;;;16.28;41.56;99643.31;4962695;28;97151;-46
2021/12/27 08:12:02;;;;;;;4.60;4.20;;;16.40;86.20;;;16.09;42.10;99641.19;4959249;28;98112;-46
2021/12/27 08:14:28;;;;;;;5.10;4.70;;;16.00;87.70;;;15.84;42.39;99641.28;4958712;28;98150;-44
2021/12/27 08:16:54;;;;;;;3.03;2.80;;;15.40;89.90;;;15.60;43.24;99650.09;4962920;28;98004;-45
2021/12/27 08:19:20;;;;;;;2.50;2.30;;;15.00;91.10;;;15.37;43.47;99649.06;4957922;27;100511;-44
2021/12/27 08:21:45;;;;;;;5.80;4.57;;;14.60;91.70;;;14.99;44.15;99659.72;4930038;28;97496;-42
2021/12/27 08:24:11;;;;;;;5.00;4.30;;;14.10;92.00;;;14.70;45.42;99647.59;4943907;28;98915;-43
2021/12/27 08:26:38;;;;;;;2.00;1.80;;;13.70;93.60;;;14.68;45.35;99645.06;4942091;28;99916;-42
2021/12/27 08:29:09;;;;;;;1.73;1.60;;;13.70;93.20;;;14.87;44.97;99644.63;4946475;28;99106;-44
2021/12/27 08:31:35;;;;;;;2.30;2.10;;;14.30;92.10;;;15.02;44.55;99651.53;4943736;28;98492;-49
2021/12/27 08:34:02;;;;;;;1.40;1.30;;;14.70;91.30;;;15.11;44.47;99645.59;4958435;28;99788;-45
2021/12/27 08:36:28;;;;;;;2.00;1.70;;;14.90;91.00;;;15.31;44.00;99638.00;4939045;28;100990;-44
2021/12/27 08:38:54;;;;;;;2.43;1.60;;;15.20;90.50;;;15.43;43.78;99637.13;4944274;28;99394;-46
2021/12/27 08:41:20;;;;;;;1.43;1.23;;;15.40;90.00;;;15.50;43.54;99629.59;4953515;28;97782;-44
2021/12/27 08:43:46;;;;;;;1.77;1.67;;;15.50;90.10;;;15.60;43.40;99634.13;4942795;28;98105;-42
2021/12/27 08:46:12;;;;;;;2.00;1.70;;;15.60;90.00;;;15.69;43.29;99633.47;4942561;28;97727;-49
2021/12/27 08:48:40;;;;;;;1.93;1.77;;;15.70;89.40;;;15.77;42.91;99630.28;4939525;28;100741;-43
2021/12/27 08:51:06;;;;;;;3.17;2.87;;;15.80;89.20;;;15.83;42.92;99634.28;4945817;28;98168;-43
2021/12/27 08:53:32;;;;;;;1.80;1.70;;;15.80;88.60;;;15.88;42.76;99640.09;4955161;28;101200;-45
2021/12/27 08:55:58;;;;;;;1.93;1.73;;;15.90;88.90;;;15.93;42.56;99624.69;4939758;28;100106;-45
2021/12/27 08:58:23;;;;;;;2.13;1.93;;;15.90;88.90;;;15.97;42.67;99627.00;4938714;28;97485;-47
2021/12/27 09:00:49;;;;;;;2.20;1.87;;;16.00;88.60;;;16.02;42.57;99623.97;4943197;28;99724;-45
2021/12/27 09:03:15;;;;;;;2.30;2.03;;;16.00;88.50;;;16.07;42.19;99621.84;4942211;28;98058;-47
2021/12/27 09:05:42;;;;;;;2.07;1.77;;;16.10;87.80;;;16.13;42.33;99618.72;4933833;28;103550;-46
2021/12/27 09:08:09;;;;;;;1.80;1.60;;;16.20;87.90;;;16.13;42.05;99621.38;4942990;28;99105;-44
2021/12/27 09:10:35;;;;;;;2.03;1.53;;;16.10;87.80;;;16.15;42.03;99622.09;4939679;28;99100;-43
2021/12/27 09:13:02;;;;;;;3.00;2.30;;;16.10;87.80;;;16.11;42.13;99617.13;4941618;28;98217;-45
2021/12/27 09:15:30;;;;;;;3.50;1.57;;;16.00;88.40;;;16.09;42.13;99614.59;4937196;28;98907;-45
2021/12/27 09:17:57;;;;;;;1.93;1.70;;;16.00;88.60;;;16.16;42.07;99615.81;4940053;28;99442;-42
2021/12/27 09:20:25;;;;;;;2.33;2.13;;;16.10;88.10;;;16.21;42.12;99613.69;4934683;28;98809;-47
2021/12/27 09:22:52;;;;;;;2.20;1.90;;;16.20;87.50;;;16.21;42.08;99611.03;4950931;28;97826;-44
2021/12/27 09:25:18;;;;;;;2.10;1.77;;;16.20;87.80;;;16.24;42.01;99602.78;4939840;28;98154;-48
2021/12/27 09:27:44;;;;;;;2.10;1.90;;;16.30;87.50;;;16.29;41.70;99605.09;4944753;28;103512;-46
2021/12/27 09:30:11;;;;;;;1.90;1.70;;;16.40;87.10;;;16.32;41.88;99608.38;4944231;28;97348;-46
2021/12/27 09:32:37;;;;;;;1.97;1.80;;;16.40;87.20;;;16.33;42.03;99610.06;4942766;28;97369;-45
2021/12/27 09:35:06;;;;;;;4.67;3.87;;;16.40;87.10;;;16.31;41.91;99614.66;4940432;28;99320;-45
2021/12/27 09:37:32;;;;;;;1.80;1.70;;;16.40;87.40;;;16.32;42.06;99618.16;4955762;27;98374;-42
2021/12/27 09:39:58;;;;;;;2.20;1.70;;;16.30;87.40;;;16.31;41.84;99624.47;4938089;28;97149;-45
2021/12/27 09:42:26;;;;;;;2.10;1.90;;;16.30;87.50;;;16.33;41.96;99611.88;4941484;28;97692;-48
2021/12/27 09:44:56;;;;;;;1.80;1.70;;;16.40;87.10;;;16.33;41.76;99612.72;4942094;28;99524;-47
2021/12/27 09:47:23;;;;;;;1.73;1.53;;;16.40;87.30;;;16.37;41.95;99602.72;4937441;28;97091;-44
2021/12/27 09:49:50;;;;;;;1.90;1.60;;;16.40;87.20;;;16.38;41.79;99604.41;4955818;28;97733;-43
2021/12/27 09:52:16;;;;;;;2.50;1.90;;;16.50;87.10;;;16.42;41.70;99605.03;4941334;28;97579;-47
2021/12/27 09:54:47;;;;;;;2.27;1.70;;;16.50;87.10;;;16.46;41.72;99595.81;4939978;28;103211;-43
2021/12/27 09:57:14;;;;;;;2.37;2.10;;;16.50;86.80;;;16.46;41.87;99601.16;4955062;27;98365;-45
2021/12/27 09:59:40;;;;;;;2.13;1.50;;;16.60;86.70;;;16.23;42.28;99603.75;4939985;28;96879;-46
2021/12/27 10:02:06;;;;;;;5.30;4.80;;;16.10;88.30;;;15.84;44.23;99606.72;4942786;27;98561;-47
2021/12/27 10:04:33;;;;;;;2.73;2.10;;;15.50;92.40;;;15.81;43.19;99604.31;4950300;28;96965;-48
2021/12/27 10:06:58;;;;;;;1.70;1.60;;;15.40;91.00;;;15.80;43.34;99613.25;4943472;28;99490;-44
2021/12/27 10:09:24;;;;;;;2.07;1.87;;;15.50;90.70;;;15.82;43.09;99595.38;4945681;28;102587;-45
2021/12/27 10:11:50;;;;;;;2.90;2.60;;;15.60;90.20;;;15.88;43.10;99600.22;4949572;28;97796;-47
2021/12/27 10:14:24;;;;;;;1.97;1.70;;;15.80;89.90;;;15.96;42.96;99597.84;4943311;28;104257;-44
2021/12/27 10:17:05;;;;;;;2.10;2.00;;;15.90;89.50;;;16.01;42.92;99585.03;4943611;28;102873;-47
2021/12/27 10:19:33;;;;;;;2.03;1.83;;;15.90;89.30;;;16.06;42.74;99580.25;4939248;28;100534;-46
2021/12/27 10:22:00;;;;;;;1.60;1.50;;;16.00;88.90;;;16.06;42.68;99572.28;4961503;28;97980;-46